Time;durP1;ratioP1;P1;durP2;ratioP2;P2;SDS_P1;SDS_P2;PMS_P1;PMS_P2;Temp;Humidity;BMP_temperature;BMP_pressure;BME280_temperature;BME280_humidity;BME280_pressure;Samples;Min_cycle;Max_cycle;Signal;HPM_P1;HPM_P2
2021/12/31 00:01:47;;;;;;;8.57;5.15;;;;;;;12.63;85.33;99527.22;2619148;54;20550;-68
2021/12/31 00:04:16;;;;;;;8.68;4.28;;;;;;;12.60;84.83;99535.56;2619127;54;20117;-68
2021/12/31 00:06:47;;;;;;;12.48;5.32;;;;;;;12.52;84.96;99530.38;2618812;54;20026;-68
2021/12/31 00:09:19;;;;;;;10.30;5.15;;;;;;;12.55;84.96;99524.69;2618844;54;20053;-68
2021/12/31 00:11:49;;;;;;;9.10;5.18;;;;;;;12.58;85.12;99524.34;2618918;54;20539;-68
2021/12/31 00:14:19;;;;;;;8.20;4.90;;;;;;;12.57;84.63;99530.63;2618998;54;20648;-68
2021/12/31 00:16:50;;;;;;;6.10;4.15;;;;;;;12.53;84.78;99530.19;2618948;54;20041;-69
2021/12/31 00:19:20;;;;;;;9.30;5.40;;;;;;;12.51;84.88;99537.50;2618681;54;20039;-69
2021/12/31 00:21:51;;;;;;;10.10;5.07;;;;;;;12.55;84.78;99535.31;2618890;54;20034;-67
2021/12/31 00:24:25;;;;;;;9.85;5.25;;;;;;;12.56;84.46;99543.06;2618928;54;20031;-67
2021/12/31 00:26:55;;;;;;;9.68;4.88;;;;;;;12.55;84.32;99544.09;2618644;54;20553;-68
2021/12/31 00:29:25;;;;;;;11.05;5.45;;;;;;;12.56;84.62;99544.91;2619617;39;20422;-68
2021/12/31 00:31:54;;;;;;;18.83;8.18;;;;;;;12.54;84.27;99546.94;2618103;54;20140;-67
2021/12/31 00:34:24;;;;;;;10.05;5.65;;;;;;;12.52;84.44;99544.44;2618344;54;20578;-68
2021/12/31 00:36:54;;;;;;;10.02;5.68;;;;;;;12.53;84.27;99540.81;2618452;54;20605;-67
2021/12/31 00:39:26;;;;;;;8.25;5.20;;;;;;;12.51;84.27;99534.84;2618976;54;20035;-67
2021/12/31 00:42:01;;;;;;;8.98;4.35;;;;;;;12.48;83.90;99529.91;2619021;54;20086;-67
2021/12/31 00:44:30;;;;;;;10.43;6.47;;;;;;;12.52;84.48;99525.88;2618744;54;20046;-68
2021/12/31 00:47:00;;;;;;;7.65;4.68;;;;;;;12.56;84.38;99523.69;2618186;47;20054;-67
2021/12/31 00:49:29;;;;;;;12.07;4.90;;;;;;;12.56;84.03;99524.50;2618185;47;20070;-67
2021/12/31 00:51:59;;;;;;;12.73;4.70;;;;;;;12.52;83.98;99522.41;2619411;31;20530;-67
2021/12/31 00:54:31;;;;;;;10.50;5.72;;;;;;;12.52;84.05;99517.94;2618571;54;20038;-67
2021/12/31 00:57:03;;;;;;;7.07;4.45;;;;;;;12.52;83.72;99509.97;2618518;54;20050;-66
2021/12/31 00:59:34;;;;;;;9.85;5.65;;;;;;;12.51;83.92;99510.16;2618159;54;20585;-66
2021/12/31 01:02:06;;;;;;;8.57;5.75;;;;;;;12.48;83.60;99503.41;2618591;39;20418;-66
2021/12/31 01:04:37;;;;;;;7.22;4.18;;;;;;;12.46;83.81;99496.66;2618668;54;20049;-67
2021/12/31 01:07:07;;;;;;;8.13;4.53;;;;;;;12.40;83.41;99509.63;2619831;54;20038;-67
2021/12/31 01:09:39;;;;;;;9.57;4.50;;;;;;;12.38;83.97;99505.53;2624058;54;20034;-67
2021/12/31 01:12:10;;;;;;;12.95;6.75;;;;;;;12.40;83.82;99509.63;2619978;54;20581;-67
2021/12/31 01:14:51;;;;;;;13.15;6.57;;;;;;;12.45;83.86;99508.25;2618617;54;20026;-67
2021/12/31 01:17:35;;;;;;;8.40;4.22;;;;;;;12.44;83.75;99503.97;2617502;47;20023;-68
2021/12/31 01:20:05;;;;;;;;;;;;;;;12.45;83.84;99500.31;2618844;54;20545;-69
2021/12/31 01:22:35;;;;;;;7.32;4.20;;;;;;;12.46;84.05;99501.97;2618668;54;20434;-68
2021/12/31 01:25:09;;;;;;;11.23;5.40;;;;;;;12.49;84.11;99501.56;2618625;54;20549;-68
2021/12/31 01:27:40;;;;;;;7.40;4.72;;;;;;;12.48;83.73;99494.63;2618606;54;20038;-69
2021/12/31 01:30:13;;;;;;;13.45;5.15;;;;;;;12.42;83.64;99504.16;2618588;54;20038;-68
2021/12/31 01:32:43;;;;;;;9.10;4.70;;;;;;;12.37;83.54;99491.47;2618092;47;20034;-69
2021/12/31 01:35:15;;;;;;;9.30;4.63;;;;;;;12.34;83.59;99491.84;2619052;54;20142;-67
2021/12/31 01:37:45;;;;;;;9.07;4.20;;;;;;;12.40;83.69;99492.91;2618237;47;20104;-67
2021/12/31 01:40:17;;;;;;;7.63;4.07;;;;;;;12.38;84.03;99490.47;2618540;54;20545;-66
2021/12/31 01:42:47;;;;;;;8.82;4.82;;;;;;;12.36;83.86;99492.47;2618111;47;20022;-66
2021/12/31 01:45:20;;;;;;;8.32;4.85;;;;;;;12.38;83.66;99498.41;2618954;54;20038;-66
2021/12/31 01:48:06;;;;;;;7.45;4.57;;;;;;;12.37;83.83;99496.78;2618642;47;20022;-67
2021/12/31 01:50:37;;;;;;;10.40;4.80;;;;;;;12.44;83.54;99496.81;2619254;39;20486;-68
2021/12/31 01:53:08;;;;;;;7.00;4.63;;;;;;;12.47;83.50;99490.34;2619365;54;20035;-68
2021/12/31 01:55:40;;;;;;;9.52;5.10;;;;;;;12.50;83.28;99492.63;2619418;54;20030;-67
2021/12/31 01:58:10;;;;;;;11.77;4.68;;;;;;;12.45;83.26;99498.50;2618934;54;20054;-67
2021/12/31 02:00:41;;;;;;;6.80;4.63;;;;;;;12.45;83.05;99495.84;2618921;47;20023;-67
2021/12/31 02:03:10;;;;;;;7.50;4.20;;;;;;;12.44;83.58;99502.13;2619336;39;20530;-68
2021/12/31 02:05:40;;;;;;;9.30;4.60;;;;;;;12.45;83.53;99498.50;2619285;54;20570;-68
2021/12/31 02:08:10;;;;;;;9.82;4.38;;;;;;;12.45;83.06;99497.66;2618568;47;20055;-68
2021/12/31 02:10:42;;;;;;;7.18;4.03;;;;;;;12.47;83.46;99508.91;2618538;54;20594;-68
2021/12/31 02:13:12;;;;;;;7.35;4.10;;;;;;;12.47;83.19;99508.91;2619516;39;20418;-68
2021/12/31 02:15:43;;;;;;;7.50;3.97;;;;;;;12.47;82.92;99514.22;2618511;47;20030;-68
2021/12/31 02:18:12;;;;;;;6.68;4.15;;;;;;;12.50;83.38;99514.66;2618703;47;20023;-68
2021/12/31 02:20:47;;;;;;;9.18;4.22;;;;;;;12.51;83.26;99504.88;2619363;54;20031;-67
2021/12/31 02:23:18;;;;;;;8.98;4.00;;;;;;;12.49;82.97;99509.53;2619473;54;20034;-68
2021/12/31 02:25:48;;;;;;;6.13;3.70;;;;;;;12.44;82.82;99514.56;2618839;54;20043;-68
2021/12/31 02:28:18;;;;;;;9.50;3.83;;;;;;;12.42;82.67;99509.47;2619351;54;20077;-67
2021/12/31 02:30:48;;;;;;;5.75;3.05;;;;;;;12.44;82.64;99511.91;2618663;54;20030;-67
2021/12/31 02:33:18;;;;;;;6.07;3.85;;;;;;;12.46;82.53;99509.91;2619486;54;20041;-67
2021/12/31 02:35:50;;;;;;;5.85;3.10;;;;;;;12.44;82.68;99510.09;2619769;39;20438;-68
2021/12/31 02:38:19;;;;;;;5.95;3.50;;;;;;;12.42;82.90;99509.47;2619447;54;20042;-68
2021/12/31 02:40:49;;;;;;;7.38;3.40;;;;;;;12.40;82.78;99520.25;2624442;54;20034;-68
2021/12/31 02:43:19;;;;;;;7.40;3.33;;;;;;;12.37;82.73;99522.47;2624444;54;20074;-68
2021/12/31 02:45:48;;;;;;;4.30;2.90;;;;;;;12.43;82.90;99512.94;2619778;54;20078;-68
2021/12/31 02:48:24;;;;;;;7.88;2.90;;;;;;;12.43;82.60;99526.19;2619432;54;20038;-67
2021/12/31 02:51:01;;;;;;;6.88;3.30;;;;;;;12.41;82.53;99531.69;2618644;54;20034;-68
2021/12/31 02:53:34;;;;;;;8.20;3.58;;;;;;;12.45;82.47;99529.47;2618704;54;20046;-67
2021/12/31 02:56:06;;;;;;;;;;;;;;;12.44;82.27;99531.31;2621196;47;20038;-68
2021/12/31 02:58:37;;;;;;;5.03;3.05;;;;;;;12.45;82.60;99518.84;2623819;54;20438;-68
2021/12/31 03:01:09;;;;;;;5.85;3.10;;;;;;;12.50;82.57;99524.44;2624317;47;20041;-67
2021/12/31 03:03:39;;;;;;;6.90;3.00;;;;;;;12.52;82.44;99530.38;2623769;54;20067;-66
2021/12/31 03:06:13;;;;;;;6.53;3.17;;;;;;;12.50;82.20;99524.44;2623993;54;20038;-67
2021/12/31 03:08:48;;;;;;;6.45;3.25;;;;;;;12.46;82.22;99524.00;2624074;54;20041;-67
2021/12/31 03:11:22;;;;;;;5.32;3.72;;;;;;;12.42;82.08;99527.22;2623340;54;20031;-67
2021/12/31 03:13:53;;;;;;;10.90;3.72;;;;;;;12.39;82.39;99528.41;2622635;54;20042;-66
2021/12/31 03:16:24;;;;;;;8.57;3.85;;;;;;;12.42;82.39;99527.22;2619864;54;20053;-67
2021/12/31 03:18:55;;;;;;;8.65;4.10;;;;;;;12.42;82.76;99520.06;2619102;54;20030;-66
2021/12/31 03:21:27;;;;;;;6.43;3.65;;;;;;;12.44;83.12;99512.75;2619060;54;20086;-67
2021/12/31 03:23:58;;;;;;;6.68;3.67;;;;;;;12.40;82.57;99511.47;2619330;54;20059;-67
2021/12/31 03:26:27;;;;;;;5.55;3.85;;;;;;;12.42;83.38;99513.94;2618784;54;20065;-66
2021/12/31 03:28:57;;;;;;;3.50;3.08;;;;;;;12.45;83.25;99511.75;2619235;54;20089;-67
2021/12/31 03:31:27;;;;;;;7.18;4.03;;;;;;;12.38;82.70;99509.00;2618934;54;20042;-67
2021/12/31 03:33:56;;;;;;;7.40;3.67;;;;;;;12.33;82.68;99500.00;2619005;54;20023;-66
2021/12/31 03:36:29;;;;;;;8.63;3.72;;;;;;;12.25;82.61;99500.91;2618094;47;20030;-66
2021/12/31 03:38:58;;;;;;;8.23;4.20;;;;;;;12.25;83.46;99506.22;2618836;54;20081;-66
2021/12/31 03:41:28;;;;;;;9.43;3.97;;;;;;;12.33;83.78;99507.94;2619639;39;20431;-66
2021/12/31 03:43:57;;;;;;;8.63;3.80;;;;;;;12.34;83.21;99506.94;2619308;54;20034;-65
2021/12/31 03:46:27;;;;;;;7.93;4.30;;;;;;;12.36;83.70;99515.50;2618974;54;20538;-66
2021/12/31 03:48:56;;;;;;;7.05;4.07;;;;;;;12.43;83.57;99507.63;2618747;47;20029;-66
2021/12/31 03:51:28;;;;;;;12.25;4.00;;;;;;;12.47;83.08;99508.91;2620189;31;20531;-66
2021/12/31 03:53:58;;;;;;;6.35;3.83;;;;;;;12.48;83.44;99503.41;2619169;54;20030;-67
2021/12/31 03:56:31;;;;;;;8.70;3.97;;;;;;;12.47;82.82;99496.47;2621546;54;20038;-67
2021/12/31 03:59:01;;;;;;;5.43;3.70;;;;;;;12.38;82.85;99503.72;2623872;54;20522;-68
2021/12/31 04:01:31;;;;;;;10.00;4.38;;;;;;;12.30;83.54;99506.47;2624072;54;20537;-67
2021/12/31 04:04:01;;;;;;;7.40;4.40;;;;;;;12.30;83.56;99509.13;2621055;54;20538;-68
2021/12/31 04:06:33;;;;;;;6.72;4.30;;;;;;;12.38;83.64;99503.72;2618456;54;20031;-68
2021/12/31 04:09:03;;;;;;;7.55;3.65;;;;;;;12.38;83.02;99502.91;2618181;51;20073;-68
2021/12/31 04:11:33;;;;;;;6.13;3.67;;;;;;;12.33;83.73;99494.69;2618492;54;20031;-68
2021/12/31 04:14:03;;;;;;;8.38;3.25;;;;;;;12.37;83.38;99496.78;2618372;47;20038;-68
2021/12/31 04:16:33;;;;;;;4.85;2.83;;;;;;;12.29;82.99;99488.94;2618591;54;20065;-66
2021/12/31 04:19:02;;;;;;;4.32;3.10;;;;;;;12.28;82.41;99489.09;2618511;48;20030;-67
2021/12/31 04:21:35;;;;;;;7.25;2.90;;;;;;;12.29;82.36;99488.13;2618228;54;20086;-67
2021/12/31 04:24:13;;;;;;;8.75;3.63;;;;;;;12.29;82.35;99490.78;2619000;54;20038;-67
2021/12/31 04:26:43;;;;;;;6.45;3.03;;;;;;;12.21;82.46;99478.44;2619024;54;20550;-67
2021/12/31 04:29:13;;;;;;;4.28;2.60;;;;;;;12.27;82.72;99471.56;2618602;39;20422;-67
2021/12/31 04:31:42;;;;;;;4.72;2.28;;;;;;;12.29;82.18;99454.47;2618448;54;20038;-67
2021/12/31 04:34:12;;;;;;;6.47;2.60;;;;;;;12.30;81.90;99453.47;2618767;39;20438;-67
2021/12/31 04:36:44;;;;;;;4.55;3.20;;;;;;;12.30;82.07;99455.28;2618754;39;20418;-67
2021/12/31 04:39:14;;;;;;;5.30;2.92;;;;;;;12.27;82.11;99451.16;2618891;54;20041;-67
2021/12/31 04:41:44;;;;;;;5.30;2.88;;;;;;;12.23;81.96;99449.09;2618819;54;20033;-67
2021/12/31 04:44:13;;;;;;;3.13;2.60;;;;;;;12.17;81.52;99447.19;2618696;54;20038;-68
2021/12/31 04:46:43;;;;;;;7.20;4.07;;;;;;;12.10;81.45;99437.34;2618656;54;20041;-67
2021/12/31 04:49:13;;;;;;;5.57;3.55;;;;;;;12.07;81.66;99444.81;2619042;54;20045;-67
2021/12/31 04:51:49;;;;;;;4.60;2.75;;;;;;;12.03;81.33;99441.72;2618832;54;20041;-67
2021/12/31 04:54:18;;;;;;;3.10;2.80;;;;;;;12.02;81.43;99452.53;2619880;39;20418;-67
2021/12/31 04:56:52;;;;;;;5.80;3.00;;;;;;;11.92;80.89;99454.63;2618746;54;20033;-66
2021/12/31 04:59:21;;;;;;;6.07;2.65;;;;;;;11.82;81.24;99457.53;2618779;54;20030;-66
2021/12/31 05:01:56;;;;;;;6.93;2.67;;;;;;;11.76;81.03;99450.34;2618547;47;20026;-66
2021/12/31 05:04:26;;;;;;;3.92;2.72;;;;;;;11.68;81.24;99456.56;2619012;54;20043;-66
2021/12/31 05:06:59;;;;;;;4.60;2.53;;;;;;;11.64;81.82;99450.00;2618465;54;20049;-67
2021/12/31 05:09:29;;;;;;;6.72;2.80;;;;;;;11.56;81.46;99447.44;2619506;54;20042;-67
2021/12/31 05:11:58;;;;;;;4.07;3.03;;;;;;;11.53;81.96;99445.16;2619136;54;20038;-67
2021/12/31 05:14:28;;;;;;;5.25;2.90;;;;;;;11.51;81.59;99447.13;2619330;54;20042;-66
2021/12/31 05:16:58;;;;;;;5.35;2.80;;;;;;;11.52;81.84;99441.69;2619440;54;20034;-73
2021/12/31 05:19:27;;;;;;;7.30;2.85;;;;;;;11.51;81.48;99433.91;2623839;46;20057;-74
2021/12/31 05:21:59;;;;;;;7.10;3.30;;;;;;;11.48;81.55;99445.69;2621711;54;20030;-74
2021/12/31 05:24:29;;;;;;;4.72;2.80;;;;;;;11.45;81.71;99439.94;2621705;54;20518;-74
2021/12/31 05:26:59;;;;;;;5.40;3.28;;;;;;;11.36;81.33;99442.69;2622063;54;20045;-72
2021/12/31 05:29:28;;;;;;;9.13;2.70;;;;;;;11.27;81.57;99443.78;2623474;54;20045;-72
2021/12/31 05:31:58;;;;;;;6.13;2.63;;;;;;;11.23;81.88;99446.97;2621512;47;20079;-73
2021/12/31 05:34:28;;;;;;;4.18;2.65;;;;;;;11.19;82.11;99440.41;2621522;54;20115;-74
2021/12/31 05:37:00;;;;;;;7.82;2.83;;;;;;;11.17;81.76;99448.50;2620916;47;20029;-73
2021/12/31 05:39:29;;;;;;;4.85;3.17;;;;;;;11.18;81.97;99451.97;2621418;54;20172;-73
2021/12/31 05:41:59;;;;;;;6.63;3.03;;;;;;;11.14;81.96;99447.06;2621119;54;20082;-73
2021/12/31 05:44:29;;;;;;;6.15;2.60;;;;;;;11.06;82.14;99447.13;2620863;47;20558;-74
2021/12/31 05:46:58;;;;;;;5.47;3.28;;;;;;;11.06;81.97;99447.13;2620197;54;20018;-74
2021/12/31 05:49:30;;;;;;;5.95;3.03;;;;;;;11.05;82.33;99450.75;2619179;54;20160;-73
2021/12/31 05:52:02;;;;;;;3.35;2.72;;;;;;;11.01;82.27;99460.03;2619042;54;20030;-73
2021/12/31 05:54:32;;;;;;;9.25;3.00;;;;;;;10.99;82.39;99459.41;2619111;54;20049;-73
2021/12/31 05:57:02;;;;;;;5.20;2.55;;;;;;;10.95;82.32;99460.78;2618981;54;20030;-73
2021/12/31 05:59:31;;;;;;;7.50;3.17;;;;;;;10.83;82.15;99465.66;2618918;54;20118;-73
2021/12/31 06:02:01;;;;;;;5.65;2.75;;;;;;;10.77;82.10;99479.59;2622995;54;20038;-74
2021/12/31 06:04:31;;;;;;;5.55;3.13;;;;;;;10.74;82.47;99482.59;2623314;54;20154;-73
2021/12/31 06:07:03;;;;;;;5.45;2.67;;;;;;;10.69;82.56;99486.75;2622462;47;20031;-73
2021/12/31 06:09:34;;;;;;;5.60;2.97;;;;;;;10.66;82.90;99480.03;2621470;54;20034;-75
2021/12/31 06:12:04;;;;;;;3.80;2.80;;;;;;;10.67;83.08;99492.25;2621853;54;20043;-73
2021/12/31 06:14:34;;;;;;;8.57;3.60;;;;;;;10.69;82.81;99486.75;2620956;54;20045;-75
2021/12/31 06:17:07;;;;;;;6.97;3.40;;;;;;;10.68;83.09;99477.19;2621242;54;20031;-74
2021/12/31 06:19:37;;;;;;;6.90;3.90;;;;;;;10.71;82.75;99475.03;2622346;54;20042;-74
2021/12/31 06:22:15;;;;;;;6.05;3.30;;;;;;;10.64;82.98;99474.06;2622940;54;20038;-72
2021/12/31 06:24:45;;;;;;;6.57;3.03;;;;;;;10.64;83.01;99468.78;2623826;39;20495;-74
2021/12/31 06:27:14;;;;;;;4.20;3.13;;;;;;;10.65;83.02;99476.56;2622823;54;20046;-74
2021/12/31 06:29:44;;;;;;;7.97;2.95;;;;;;;10.65;83.23;99463.34;2623126;54;20035;-74
2021/12/31 06:32:13;;;;;;;10.77;3.40;;;;;;;10.64;82.99;99466.16;2623697;39;20445;-74
2021/12/31 06:34:43;;;;;;;6.75;3.47;;;;;;;10.66;82.73;99467.63;2623226;54;20022;-74
2021/12/31 06:37:15;;;;;;;8.50;3.50;;;;;;;10.67;82.67;99468.44;2623863;46;20039;-73
2021/12/31 06:39:46;;;;;;;8.43;3.78;;;;;;;10.65;82.86;99473.06;2624715;47;20026;-73
2021/12/31 06:42:16;;;;;;;6.28;3.50;;;;;;;10.65;82.86;99478.34;2625195;46;20029;-74
2021/12/31 06:44:46;;;;;;;8.70;4.00;;;;;;;10.67;82.67;99476.38;2624296;54;20027;-74
2021/12/31 06:47:15;;;;;;;8.43;3.78;;;;;;;10.65;82.59;99481.84;2625414;39;20431;-74
2021/12/31 06:49:45;;;;;;;5.75;3.20;;;;;;;10.64;82.94;99485.47;2624485;54;20030;-75
2021/12/31 06:52:17;;;;;;;7.03;3.25;;;;;;;10.65;82.54;99475.72;2624465;54;20037;-73
2021/12/31 06:54:47;;;;;;;9.32;3.60;;;;;;;10.61;82.66;99475.28;2623284;46;20042;-74
2021/12/31 06:57:16;;;;;;;6.93;3.90;;;;;;;10.56;82.80;99474.13;2622420;54;20049;-73
2021/12/31 06:59:46;;;;;;;8.27;3.40;;;;;;;10.52;82.71;99476.31;2623703;54;20060;-74
2021/12/31 07:02:16;;;;;;;5.78;3.33;;;;;;;10.50;82.38;99469.56;2624164;54;20033;-72
2021/12/31 07:04:46;;;;;;;7.13;3.53;;;;;;;10.50;82.76;99472.22;2623474;54;20041;-73
2021/12/31 07:07:18;;;;;;;12.98;6.28;;;;;;;10.47;82.32;99475.19;2623292;54;20067;-73
2021/12/31 07:09:47;;;;;;;9.20;4.95;;;;;;;10.28;82.20;99472.00;2622883;54;20058;-74
2021/12/31 07:12:17;;;;;;;7.63;3.55;;;;;;;10.12;82.57;99472.91;2622431;46;20038;-73
2021/12/31 07:14:47;;;;;;;6.72;4.45;;;;;;;10.08;82.79;99473.38;2622323;54;20049;-73
2021/12/31 07:17:17;;;;;;;6.00;3.90;;;;;;;10.09;83.02;99467.94;2622471;47;20034;-74
2021/12/31 07:19:46;;;;;;;7.15;4.30;;;;;;;10.08;83.05;99463.66;2621703;54;20026;-73
2021/12/31 07:22:19;;;;;;;6.35;4.00;;;;;;;10.05;83.01;99465.84;2622208;54;20073;-74
2021/12/31 07:24:48;;;;;;;8.02;3.15;;;;;;;10.00;83.21;99469.00;2621988;54;20554;-74
2021/12/31 07:27:18;;;;;;;5.50;4.00;;;;;;;10.00;83.02;99455.78;2622537;54;20045;-73
2021/12/31 07:29:47;;;;;;;5.80;3.70;;;;;;;10.00;83.51;99458.44;2622876;54;20616;-73
2021/12/31 07:32:17;;;;;;;6.78;5.10;;;;;;;10.05;83.56;99456.09;2623968;54;20023;-73
2021/12/31 07:34:47;;;;;;;5.55;4.10;;;;;;;10.05;83.30;99468.47;2624010;54;20051;-73
2021/12/31 07:37:19;;;;;;;10.30;5.35;;;;;;;9.96;82.49;99477.41;2624305;54;20038;-72
2021/12/31 07:39:53;;;;;;;9.43;4.65;;;;;;;9.88;82.84;99467.72;2625416;54;20117;-72
2021/12/31 07:42:25;;;;;;;5.07;3.78;;;;;;;9.83;83.23;99473.50;2622815;54;20585;-74
2021/12/31 07:44:55;;;;;;;7.45;4.10;;;;;;;9.89;83.49;99462.25;2619662;54;20037;-72
2021/12/31 07:47:25;;;;;;;7.95;5.53;;;;;;;9.92;83.20;99461.13;2619128;54;20037;-74
2021/12/31 07:49:54;;;;;;;11.00;6.88;;;;;;;9.99;82.92;99461.22;2619984;54;20038;-72
2021/12/31 07:52:26;;;;;;;8.48;5.05;;;;;;;10.03;82.55;99467.81;2624726;54;20037;-73
2021/12/31 07:54:56;;;;;;;7.57;4.65;;;;;;;10.05;82.38;99474.56;2624205;51;20045;-72
2021/12/31 07:57:26;;;;;;;10.52;4.38;;;;;;;10.01;82.38;99485.66;2624677;54;20034;-73
2021/12/31 07:59:55;;;;;;;7.07;4.03;;;;;;;9.97;82.51;99476.44;2625128;54;20031;-72
2021/12/31 08:02:25;;;;;;;8.70;5.57;;;;;;;9.99;82.27;99471.78;2624802;54;20045;-72
2021/12/31 08:04:54;;;;;;;7.90;4.40;;;;;;;9.97;82.49;99466.69;2624331;54;20038;-72
2021/12/31 08:07:27;;;;;;;4.78;3.80;;;;;;;10.00;82.27;99468.16;2623727;54;20120;-73
2021/12/31 08:09:56;;;;;;;7.55;4.32;;;;;;;10.03;82.70;99478.38;2623866;39;20317;-73
2021/12/31 08:12:46;;;;;;;7.20;4.50;;;;;;;9.93;82.15;99494.44;2623098;47;20114;-73
2021/12/31 08:15:16;;;;;;;10.18;4.82;;;;;;;9.84;82.23;99493.66;2623728;54;20038;-73
2021/12/31 08:17:46;;;;;;;7.50;4.68;;;;;;;9.88;82.81;99488.84;2623783;54;20036;-73
2021/12/31 08:20:15;;;;;;;11.95;8.20;;;;;;;9.88;82.63;99494.97;2623532;47;20026;-72
2021/12/31 08:22:48;;;;;;;11.73;8.40;;;;;;;10.01;83.13;99489.13;2624616;54;20049;-74
2021/12/31 08:25:18;;;;;;;13.73;8.48;;;;;;;10.13;82.88;99493.03;2623570;47;20043;-74
2021/12/31 08:27:48;;;;;;;10.45;8.15;;;;;;;10.21;82.13;99488.72;2625778;39;20467;-73
2021/12/31 08:30:17;;;;;;;9.88;6.78;;;;;;;10.26;81.90;99491.69;2624776;54;20535;-74
2021/12/31 08:32:47;;;;;;;7.50;6.00;;;;;;;10.27;82.46;99483.56;2624363;54;20712;-74
2021/12/31 08:35:17;;;;;;;10.98;8.00;;;;;;;10.31;82.28;99484.88;2624849;54;20026;-73
2021/12/31 08:37:49;;;;;;;11.43;5.85;;;;;;;10.35;82.72;99488.81;2624169;54;20038;-72
2021/12/31 08:40:20;;;;;;;8.85;4.50;;;;;;;10.40;82.51;99485.63;2624465;54;20034;-74
2021/12/31 08:42:49;;;;;;;5.88;3.30;;;;;;;10.44;82.11;99491.41;2622906;47;20026;-74
2021/12/31 08:45:20;;;;;;;5.78;3.30;;;;;;;10.46;82.00;99484.13;2625406;54;20046;-74
2021/12/31 08:47:49;;;;;;;5.43;3.50;;;;;;;10.48;82.15;99485.59;2625950;54;20036;-74
2021/12/31 08:50:19;;;;;;;5.65;3.03;;;;;;;10.50;82.02;99493.34;2626503;54;20026;-74
2021/12/31 08:52:51;;;;;;;7.22;3.63;;;;;;;10.58;82.01;99493.31;2626602;54;20042;-73
2021/12/31 11:19:43;;;;;;;6.60;3.10;;;;;;;12.93;74.54;99497.91;2616785;47;20038;-67
2021/12/31 11:22:13;;;;;;;3.80;2.58;;;;;;;12.95;74.61;99496.72;2620374;54;20572;-67
2021/12/31 11:24:44;;;;;;;4.25;2.60;;;;;;;13.12;74.11;99489.31;2625209;47;20030;-66
2021/12/31 11:27:31;;;;;;;5.38;2.67;;;;;;;13.20;74.16;99475.09;2624706;47;20027;-67
2021/12/31 11:30:04;;;;;;;6.65;4.00;;;;;;;13.16;73.51;99479.13;2624999;54;20038;-69
2021/12/31 11:32:58;;;;;;;4.88;4.05;;;;;;;13.17;73.60;99473.63;2625624;47;20046;-68
2021/12/31 11:35:39;;;;;;;6.68;3.45;;;;;;;13.11;73.35;99463.78;2624701;47;20026;-67
2021/12/31 11:38:10;;;;;;;5.55;3.53;;;;;;;13.19;73.99;99450.38;2622176;39;20410;-67
2021/12/31 11:40:45;;;;;;;140.40;38.85;;;;;;;13.25;73.85;99454.09;2619493;46;20033;-67
2021/12/31 11:43:27;;;;;;;4.97;3.30;;;;;;;13.30;73.70;99459.66;2619437;54;20033;-68
2021/12/31 11:46:45;;;;;;;7.03;2.92;;;;;;;13.22;73.11;99460.59;2618763;54;20038;-67
2021/12/31 11:49:22;;;;;;;8.68;4.32;;;;;;;13.20;73.18;99470.59;2618351;51;20061;-67
2021/12/31 11:52:04;;;;;;;17.27;6.22;;;;;;;13.21;73.64;99447.50;2619084;54;20042;-67
2021/12/31 11:54:35;;;;;;;5.32;3.45;;;;;;;13.22;73.30;99442.00;2619425;54;20085;-68
2021/12/31 11:57:11;;;;;;;5.32;3.80;;;;;;;13.20;73.54;99445.88;2618228;54;20057;-67
2021/12/31 11:59:53;;;;;;;3.92;3.50;;;;;;;13.21;73.33;99458.13;2619002;54;20081;-66
2021/12/31 12:02:39;;;;;;;4.68;3.10;;;;;;;13.19;73.34;99450.38;2619180;39;20441;-66
2021/12/31 12:05:16;;;;;;;5.13;3.30;;;;;;;13.15;73.57;99419.91;2618994;54;20030;-67
2021/12/31 12:07:54;;;;;;;9.63;5.78;;;;;;;13.18;73.74;99410.72;2619157;39;20450;-67
2021/12/31 12:10:29;;;;;;;7.65;5.47;;;;;;;13.18;73.93;99424.00;2619229;54;20576;-68
2021/12/31 12:13:21;;;;;;;9.63;8.10;;;;;;;13.11;73.62;99442.56;2618763;54;20041;-67
2021/12/31 12:15:52;;;;;;;6.97;5.43;;;;;;;12.96;73.96;99450.59;2618054;54;20038;-66
2021/12/31 12:18:53;;;;;;;4.50;4.10;;;;;;;12.98;74.29;99453.91;2617788;47;20054;-69
2021/12/31 12:21:40;;;;;;;5.22;3.17;;;;;;;12.99;74.07;99436.13;2618947;39;20407;-68
2021/12/31 12:24:12;;;;;;;3.00;2.80;;;;;;;12.94;74.53;99441.19;2618748;54;20033;-66
2021/12/31 12:26:43;;;;;;;4.45;3.55;;;;;;;13.08;74.76;99434.97;2617642;54;20030;-66
2021/12/31 12:29:14;;;;;;;4.22;3.22;;;;;;;13.17;73.99;99407.25;2618696;54;20043;-66
2021/12/31 12:31:50;;;;;;;2.50;2.13;;;;;;;13.18;74.00;99403.56;2618033;47;20038;-68
2021/12/31 12:34:30;;;;;;;4.55;2.45;;;;;;;13.05;73.30;99398.19;2619019;54;20035;-68
2021/12/31 12:36:59;;;;;;;8.10;4.75;;;;;;;12.99;73.47;99380.41;2618367;54;20053;-67
2021/12/31 12:39:32;;;;;;;3.85;2.55;;;;;;;13.04;73.84;99383.28;2618633;54;20073;-66
2021/12/31 12:42:02;;;;;;;3.20;2.33;;;;;;;13.13;73.33;99395.38;2618708;54;20029;-67
2021/12/31 12:44:33;;;;;;;3.30;2.80;;;;;;;13.12;73.19;99396.41;2619143;54;20057;-66
2021/12/31 12:47:02;;;;;;;3.22;2.67;;;;;;;12.99;73.11;99410.41;2618763;54;20042;-67
2021/12/31 12:49:34;;;;;;;5.00;3.08;;;;;;;12.86;73.29;99410.31;2618767;54;20055;-67
2021/12/31 12:52:13;;;;;;;4.00;2.95;;;;;;;12.71;73.28;99407.75;2618497;54;20038;-68
2021/12/31 12:54:45;;;;;;;3.95;3.13;;;;;;;12.65;73.92;99416.44;2618486;54;20082;-67
2021/12/31 12:57:23;;;;;;;3.13;2.83;;;;;;;12.51;73.78;99407.56;2618160;54;20039;-68
2021/12/31 12:59:53;;;;;;;4.40;2.90;;;;;;;12.43;74.48;99401.56;2618255;54;20157;-67
2021/12/31 13:02:40;;;;;;;4.40;3.03;;;;;;;12.50;74.71;99402.47;2618338;54;20558;-67
2021/12/31 13:05:12;;;;;;;5.55;3.47;;;;;;;12.59;74.09;99414.56;2618259;54;20037;-69
2021/12/31 13:07:52;;;;;;;4.22;3.40;;;;;;;12.45;74.21;99413.63;2617272;54;20031;-68
2021/12/31 13:10:25;;;;;;;5.50;3.83;;;;;;;12.38;74.63;99405.63;2617649;54;20042;-68
2021/12/31 13:12:55;;;;;;;5.60;3.70;;;;;;;12.28;74.52;99404.28;2618991;54;20034;-68
2021/12/31 13:15:26;;;;;;;5.85;4.22;;;;;;;12.09;75.13;99433.03;2618280;54;20038;-68
2021/12/31 13:18:06;;;;;;;6.15;4.72;;;;;;;12.07;75.25;99447.47;2618640;39;20457;-68
2021/12/31 13:20:37;;;;;;;5.75;3.95;;;;;;;11.89;75.33;99450.53;2617557;54;20054;-67
2021/12/31 13:23:11;;;;;;;4.50;3.72;;;;;;;11.81;76.05;99462.03;2618330;54;20023;-69
2021/12/31 13:25:45;;;;;;;;;;;;;;;11.84;76.00;99459.03;2617989;47;20065;-67
2021/12/31 13:28:17;;;;;;;4.55;4.05;;;;;;;11.96;75.81;99438.19;2618449;47;19938;-68
2021/12/31 13:31:02;;;;;;;12.15;9.13;;;;;;;11.99;76.12;99411.31;2618497;54;20053;-67
2021/12/31 13:33:34;;;;;;;14.80;13.27;;;;;;;12.05;75.61;99402.63;2618233;47;20035;-67
2021/12/31 13:36:14;;;;;;;6.15;5.22;;;;;;;12.02;75.39;99397.69;2617838;47;20030;-67
2021/12/31 13:39:09;;;;;;;4.47;4.00;;;;;;;11.91;75.62;99406.13;2618407;54;20048;-68
2021/12/31 13:41:49;;;;;;;5.13;3.75;;;;;;;11.84;76.00;99429.09;2617938;54;20069;-69
2021/12/31 13:44:30;;;;;;;5.63;4.28;;;;;;;11.81;76.54;99437.38;2619684;54;20034;-67
2021/12/31 13:47:08;;;;;;;5.15;4.28;;;;;;;11.84;76.47;99421.97;2618794;51;20127;-67
2021/12/31 13:49:41;;;;;;;8.15;6.15;;;;;;;11.88;76.84;99414.47;2621958;47;20022;-68
2021/12/31 13:52:26;;;;;;;8.50;5.07;;;;;;;11.95;76.60;99409.22;2620465;39;20116;-67
2021/12/31 13:54:58;;;;;;;6.85;5.15;;;;;;;11.84;76.81;99411.38;2618972;54;20031;-67
2021/12/31 13:57:32;;;;;;;6.53;4.78;;;;;;;11.78;77.15;99398.81;2618718;54;20549;-68
2021/12/31 14:00:13;;;;;;;7.03;5.72;;;;;;;11.76;77.18;99378.84;2621933;39;20462;-67
2021/12/31 14:02:43;;;;;;;7.45;6.10;;;;;;;11.79;77.68;99373.97;2621787;54;20534;-68
2021/12/31 14:05:16;;;;;;;9.63;7.60;;;;;;;11.82;77.25;99365.66;2620416;54;20042;-68
2021/12/31 14:07:52;;;;;;;6.50;5.55;;;;;;;11.80;77.46;99390.69;2618931;54;20085;-67
2021/12/31 14:10:24;;;;;;;8.30;5.90;;;;;;;11.65;77.88;99403.97;2618332;47;20536;-67
2021/12/31 14:13:00;;;;;;;8.52;6.13;;;;;;;11.54;78.33;99415.81;2619631;39;20433;-67
2021/12/31 14:15:33;;;;;;;9.68;6.47;;;;;;;11.53;78.54;99427.44;2619287;54;20050;-67
2021/12/31 14:18:03;;;;;;;8.35;6.18;;;;;;;11.54;78.51;99420.31;2618182;54;20044;-67
2021/12/31 14:20:34;;;;;;;9.52;6.35;;;;;;;11.54;78.77;99415.00;2618920;54;20070;-68
2021/12/31 14:23:05;;;;;;;8.70;6.18;;;;;;;11.52;79.05;99401.16;2618969;54;20045;-68